Time;durP1;ratioP1;P1;durP2;ratioP2;P2;SDS_P1;SDS_P2;PMS_P1;PMS_P2;Temp;Humidity;BMP_temperature;BMP_pressure;BME280_temperature;BME280_humidity;BME280_pressure;Samples;Min_cycle;Max_cycle;Signal;HPM_P1;HPM_P2
2022/07/20 00:01:46;;;;;;;6.63;6.03;;;26.70;49.40;;;;;;5096280;28;20852;-72
2022/07/20 00:04:14;;;;;;;7.03;5.77;;;26.70;49.40;;;;;;5095637;28;20482;-72
2022/07/20 00:06:42;;;;;;;5.90;5.03;;;26.50;49.90;;;;;;5095673;28;20470;-72
2022/07/20 00:11:54;;;;;;;7.20;6.47;;;26.40;50.40;;;;;;5095944;28;21020;-72
2022/07/20 00:14:21;;;;;;;6.20;4.93;;;26.30;50.50;;;;;;5095992;28;20475;-73
2022/07/20 00:16:49;;;;;;;8.03;6.43;;;26.20;50.40;;;;;;5095855;28;20456;-73
2022/07/20 00:19:17;;;;;;;8.67;6.83;;;26.10;50.80;;;;;;5095864;28;20455;-72
2022/07/20 00:21:45;;;;;;;7.37;6.67;;;26.00;51.30;;;;;;5095514;28;20478;-72
2022/07/20 00:24:13;;;;;;;6.43;5.83;;;25.90;51.00;;;;;;5095477;28;20555;-72
2022/07/20 00:26:40;;;;;;;6.10;5.60;;;25.80;51.20;;;;;;5095091;28;20482;-72
2022/07/20 00:29:07;;;;;;;12.00;5.97;;;25.70;51.60;;;;;;5095834;28;20512;-72
2022/07/20 00:31:35;;;;;;;7.63;5.90;;;;;;;;;;5095582;28;20475;-72
2022/07/20 00:34:02;;;;;;;7.13;6.03;;;25.40;51.60;;;;;;5095300;28;20440;-72
2022/07/20 00:36:29;;;;;;;6.53;5.80;;;25.40;52.30;;;;;;5095656;28;20658;-72
2022/07/20 00:38:58;;;;;;;6.37;5.77;;;25.30;52.60;;;;;;5095224;28;20474;-73
2022/07/20 00:41:25;;;;;;;5.73;5.17;;;25.30;52.30;;;;;;5095003;28;20499;-72
2022/07/20 00:43:57;;;;;;;6.73;6.00;;;25.30;52.70;;;;;;5095373;28;20544;-73
2022/07/20 00:46:25;;;;;;;6.20;5.60;;;25.20;52.90;;;;;;5095549;28;20444;-73
2022/07/20 00:48:52;;;;;;;7.30;6.60;;;25.20;52.90;;;;;;5095350;28;20451;-72
2022/07/20 00:51:19;;;;;;;8.50;6.13;;;25.10;52.70;;;;;;5095192;28;20530;-72
2022/07/20 00:53:47;;;;;;;6.53;5.87;;;25.00;52.80;;;;;;5094761;28;20476;-72
2022/07/20 00:56:17;;;;;;;12.67;6.00;;;25.00;53.10;;;;;;5094874;28;20926;-72
2022/07/20 00:58:45;;;;;;;14.40;7.70;;;24.90;53.30;;;;;;5094720;28;20871;-72
2022/07/20 01:01:13;;;;;;;7.70;6.13;;;25.00;53.50;;;;;;5095106;28;20908;-72
2022/07/20 01:03:42;;;;;;;6.57;5.90;;;24.80;53.10;;;;;;5094775;28;20478;-72
2022/07/20 01:06:09;;;;;;;8.07;6.60;;;24.80;53.40;;;;;;5094658;28;20483;-72
2022/07/20 01:08:37;;;;;;;8.60;6.70;;;24.80;53.30;;;;;;5094580;28;20509;-72
2022/07/20 01:11:04;;;;;;;7.63;5.93;;;24.70;53.60;;;;;;5094449;28;20467;-72
2022/07/20 01:13:33;;;;;;;6.70;5.30;;;24.70;53.90;;;;;;5094365;28;20439;-72
2022/07/20 01:16:01;;;;;;;6.70;6.00;;;24.70;54.10;;;;;;5094724;28;20918;-73
2022/07/20 01:18:28;;;;;;;7.77;6.30;;;24.70;53.90;;;;;;5094798;28;20497;-72
2022/07/20 01:21:01;;;;;;;10.30;6.27;;;24.70;54.50;;;;;;5094412;28;20483;-72
2022/07/20 01:23:46;;;;;;;6.57;5.83;;;24.70;54.40;;;;;;5094615;28;20471;-72
2022/07/20 01:26:17;;;;;;;8.67;6.73;;;24.50;54.30;;;;;;5094158;28;20847;-72
2022/07/20 01:28:45;;;;;;;7.60;6.80;;;24.50;54.40;;;;;;5094213;28;20430;-72
2022/07/20 01:31:13;;;;;;;9.23;6.20;;;24.50;54.40;;;;;;5094220;28;20499;-72
2022/07/20 01:33:40;;;;;;;6.27;5.67;;;24.40;54.90;;;;;;5094335;28;20451;-72
2022/07/20 01:36:10;;;;;;;6.47;5.87;;;24.40;54.90;;;;;;5094379;28;20459;-72
2022/07/20 01:38:37;;;;;;;5.90;5.40;;;24.50;55.10;;;;;;5094324;28;20452;-72
2022/07/20 01:41:04;;;;;;;6.00;5.40;;;24.40;55.00;;;;;;5094101;28;20498;-72
2022/07/20 01:43:32;;;;;;;7.80;5.77;;;24.30;55.30;;;;;;5093748;28;20483;-72
2022/07/20 01:45:59;;;;;;;6.13;5.50;;;24.20;55.30;;;;;;5093950;28;20836;-72
2022/07/20 01:48:27;;;;;;;8.63;6.10;;;24.30;55.50;;;;;;5093791;28;20459;-72
2022/07/20 01:50:54;;;;;;;7.13;6.53;;;24.10;55.60;;;;;;5093459;28;20539;-72
2022/07/20 01:53:22;;;;;;;13.53;5.50;;;24.00;55.80;;;;;;5093669;28;20538;-73
2022/07/20 01:55:51;;;;;;;5.63;5.00;;;24.00;56.10;;;;;;5093701;28;20447;-73
2022/07/20 01:58:19;;;;;;;6.43;5.83;;;24.10;55.70;;;;;;5093602;28;20531;-73
2022/07/20 02:00:46;;;;;;;6.67;5.43;;;24.00;56.10;;;;;;5093876;28;20537;-73
2022/07/20 02:03:14;;;;;;;7.90;5.90;;;24.00;56.30;;;;;;5093670;28;20852;-73
2022/07/20 02:05:41;;;;;;;7.00;6.30;;;24.00;56.30;;;;;;5093361;28;20501;-73
2022/07/20 02:08:08;;;;;;;7.70;5.90;;;24.00;56.60;;;;;;5093864;28;20526;-72
2022/07/20 02:10:37;;;;;;;8.00;6.27;;;24.00;56.70;;;;;;5093831;28;20487;-73
2022/07/20 02:13:05;;;;;;;6.57;5.93;;;24.00;56.70;;;;;;5093967;28;20822;-73
2022/07/20 02:18:17;;;;;;;8.70;6.23;;;23.50;57.10;;;;;;5094295;28;20411;-73
2022/07/20 02:20:44;;;;;;;7.40;6.17;;;23.60;57.70;;;;;;5093253;28;20469;-72
2022/07/20 02:23:12;;;;;;;6.43;5.47;;;23.60;57.30;;;;;;5093181;28;20443;-72
2022/07/20 02:25:40;;;;;;;8.70;5.77;;;23.70;57.20;;;;;;5093265;28;20447;-72
2022/07/20 02:28:08;;;;;;;8.30;6.23;;;23.60;57.20;;;;;;5093049;28;20451;-72
2022/07/20 02:30:37;;;;;;;6.83;5.40;;;23.60;57.80;;;;;;5093215;28;20539;-72
2022/07/20 02:33:04;;;;;;;6.33;5.73;;;23.60;57.70;;;;;;5093542;28;20450;-72
2022/07/20 02:35:31;;;;;;;6.07;5.50;;;23.60;57.80;;;;;;5093211;28;20474;-72
2022/07/20 02:37:59;;;;;;;7.23;5.80;;;23.70;57.90;;;;;;5093310;28;20535;-72
2022/07/20 02:40:26;;;;;;;8.10;5.50;;;23.70;57.30;;;;;;5093383;28;20506;-72
2022/07/20 02:42:55;;;;;;;6.90;6.10;;;23.60;57.60;;;;;;5092976;28;20521;-72
2022/07/20 02:45:23;;;;;;;9.13;6.30;;;23.40;57.80;;;;;;5093044;28;20578;-72
2022/07/20 02:47:51;;;;;;;8.33;5.90;;;23.40;58.30;;;;;;5093242;28;20434;-73
2022/07/20 02:50:18;;;;;;;7.07;5.77;;;23.30;58.00;;;;;;5093328;28;20464;-73
2022/07/20 02:52:46;;;;;;;12.27;6.23;;;23.40;58.50;;;;;;5092975;28;20461;-73
2022/07/20 02:55:13;;;;;;;6.33;5.73;;;23.40;58.50;;;;;;5092864;28;20526;-73
2022/07/20 02:57:41;;;;;;;7.63;5.63;;;23.30;58.20;;;;;;5092955;28;20447;-72
2022/07/20 03:00:11;;;;;;;8.63;6.07;;;23.20;58.50;;;;;;5093140;28;20463;-72
2022/07/20 03:02:38;;;;;;;7.20;5.70;;;23.10;58.70;;;;;;5094384;28;20443;-72
2022/07/20 03:05:07;;;;;;;6.83;5.90;;;23.20;58.60;;;;;;5096780;28;20475;-72
2022/07/20 03:07:34;;;;;;;11.40;6.57;;;23.10;58.60;;;;;;5096796;28;20431;-72
2022/07/20 03:10:01;;;;;;;7.30;6.30;;;23.20;59.10;;;;;;5096783;28;20502;-72
2022/07/20 03:12:29;;;;;;;6.77;6.10;;;23.10;58.80;;;;;;5096780;28;20508;-72
2022/07/20 03:14:56;;;;;;;6.60;6.00;;;23.10;58.80;;;;;;5096745;28;20508;-72
2022/07/20 03:17:25;;;;;;;7.23;6.53;;;23.00;59.40;;;;;;5096671;28;20449;-72
2022/07/20 03:19:52;;;;;;;7.80;6.37;;;22.90;59.50;;;;;;5096612;28;20447;-72
2022/07/20 03:22:20;;;;;;;7.60;6.47;;;22.90;60.20;;;;;;5096813;28;20977;-73
2022/07/20 03:24:47;;;;;;;6.80;6.17;;;23.00;59.80;;;;;;5096834;28;20531;-72
2022/07/20 03:27:15;;;;;;;9.43;6.80;;;23.10;59.90;;;;;;5096813;28;20501;-72
2022/07/20 03:29:43;;;;;;;7.70;6.30;;;22.90;59.80;;;;;;5096777;28;21018;-73
2022/07/20 03:32:10;;;;;;;6.87;6.17;;;22.80;60.30;;;;;;5096460;28;20978;-72
2022/07/20 03:34:39;;;;;;;8.07;6.73;;;22.90;59.80;;;;;;5096825;28;20470;-73
2022/07/20 03:37:06;;;;;;;7.60;6.90;;;22.90;60.30;;;;;;5096862;28;20513;-72
2022/07/20 03:39:33;;;;;;;7.50;5.80;;;22.90;60.60;;;;;;5096213;28;20538;-73
2022/07/20 03:42:01;;;;;;;9.40;6.67;;;22.70;60.90;;;;;;5096115;28;20454;-72
2022/07/20 03:44:28;;;;;;;8.13;5.70;;;22.50;61.50;;;;;;5096310;28;20517;-73
2022/07/20 03:46:55;;;;;;;6.77;6.07;;;22.50;62.50;;;;;;5096387;28;20938;-73
2022/07/20 03:49:23;;;;;;;9.27;6.40;;;22.60;62.20;;;;;;5096211;28;20470;-73
2022/07/20 03:51:51;;;;;;;7.00;6.40;;;22.70;62.00;;;;;;5096211;28;20922;-73
2022/07/20 03:54:19;;;;;;;7.47;6.77;;;22.70;61.60;;;;;;5095808;28;20813;-73
2022/07/20 03:56:46;;;;;;;10.20;6.90;;;22.60;62.20;;;;;;5095802;28;20447;-73
2022/07/20 03:59:13;;;;;;;9.50;7.00;;;22.40;62.70;;;;;;5095990;28;20447;-73
2022/07/20 04:01:41;;;;;;;7.67;5.80;;;22.50;62.80;;;;;;5096148;28;20479;-72
2022/07/20 04:04:09;;;;;;;6.20;5.60;;;22.60;63.20;;;;;;5096023;28;20511;-72
2022/07/20 04:06:37;;;;;;;10.47;6.40;;;22.60;63.90;;;;;;5096101;28;21038;-72
2022/07/20 04:09:06;;;;;;;7.67;6.43;;;22.70;64.40;;;;;;5095783;28;20501;-72
2022/07/20 04:11:33;;;;;;;8.83;6.30;;;22.70;63.90;;;;;;5095630;28;20941;-72
2022/07/20 04:14:00;;;;;;;8.93;7.03;;;22.70;64.10;;;;;;5095008;28;20479;-72
2022/07/20 04:16:28;;;;;;;8.20;6.47;;;22.70;63.80;;;;;;5095799;28;20460;-72
2022/07/20 04:18:55;;;;;;;8.40;6.40;;;22.60;63.90;;;;;;5095773;28;20475;-72
2022/07/20 04:21:22;;;;;;;9.87;6.20;;;22.30;64.60;;;;;;5095704;28;20467;-72
2022/07/20 04:23:49;;;;;;;7.93;6.40;;;22.30;65.40;;;;;;5095738;28;20531;-72
2022/07/20 04:26:18;;;;;;;9.77;7.00;;;22.30;66.30;;;;;;5095397;28;20447;-72
2022/07/20 04:28:45;;;;;;;7.27;6.30;;;22.20;66.20;;;;;;5095303;28;20539;-72
2022/07/20 04:31:12;;;;;;;9.90;6.60;;;22.20;66.80;;;;;;5095693;28;20479;-72
2022/07/20 04:33:40;;;;;;;8.40;6.57;;;22.30;67.20;;;;;;5095526;28;20450;-73
2022/07/20 04:36:08;;;;;;;10.80;6.90;;;22.40;68.10;;;;;;5095387;28;20524;-73
2022/07/20 04:38:35;;;;;;;6.70;6.10;;;22.30;67.50;;;;;;5095099;28;20960;-74
2022/07/20 04:41:02;;;;;;;10.80;6.43;;;22.30;68.90;;;;;;5095270;28;20510;-73
2022/07/20 04:43:31;;;;;;;10.93;6.90;;;22.40;68.80;;;;;;5094857;28;20557;-74
2022/07/20 04:45:58;;;;;;;7.63;6.93;;;22.50;69.60;;;;;;5095263;28;20494;-73
2022/07/20 04:48:25;;;;;;;12.10;6.07;;;22.50;69.20;;;;;;5094876;28;20443;-73
2022/07/20 04:50:52;;;;;;;7.40;6.70;;;22.60;70.40;;;;;;5095006;28;20532;-73
2022/07/20 04:53:20;;;;;;;9.90;6.40;;;22.60;70.40;;;;;;5094949;28;20835;-74
2022/07/20 04:55:47;;;;;;;7.77;7.00;;;22.60;70.60;;;;;;5094886;28;20489;-74
2022/07/20 04:58:15;;;;;;;7.00;6.30;;;22.60;70.50;;;;;;5094823;28;20483;-73
2022/07/20 05:00:43;;;;;;;11.80;6.87;;;22.70;70.70;;;;;;5094947;28;20468;-72
2022/07/20 05:03:10;;;;;;;10.23;7.10;;;22.80;70.40;;;;;;5094739;28;20447;-73
2022/07/20 05:05:38;;;;;;;11.33;7.10;;;22.80;70.40;;;;;;5094690;28;20519;-73
2022/07/20 05:08:05;;;;;;;9.63;6.57;;;22.80;70.70;;;;;;5094778;28;20443;-73
2022/07/20 05:10:32;;;;;;;9.50;6.60;;;22.80;70.60;;;;;;5094549;28;20456;-73
2022/07/20 05:13:00;;;;;;;8.80;6.57;;;22.80;68.40;;;;;;5094262;28;20546;-73
2022/07/20 05:15:27;;;;;;;8.87;7.20;;;22.90;68.90;;;;;;5094162;28;20479;-73
2022/07/20 05:17:56;;;;;;;8.10;6.63;;;22.90;69.00;;;;;;5094698;28;20483;-72
2022/07/20 05:20:23;;;;;;;8.90;7.50;;;23.10;69.60;;;;;;5094167;28;20516;-72
2022/07/20 05:22:50;;;;;;;14.83;7.63;;;23.20;71.20;;;;;;5094382;28;20978;-73
2022/07/20 05:25:18;;;;;;;22.37;8.00;;;23.20;70.10;;;;;;5093549;28;20567;-73
2022/07/20 05:27:45;;;;;;;14.50;7.23;;;23.30;71.00;;;;;;5094034;28;20501;-73
2022/07/20 05:30:13;;;;;;;8.63;7.10;;;23.30;71.30;;;;;;5094181;28;20471;-72
2022/07/20 05:32:40;;;;;;;10.13;7.93;;;23.40;72.30;;;;;;5094084;28;20483;-73
2022/07/20 05:35:09;;;;;;;8.93;6.50;;;23.40;70.70;;;;;;5093869;28;20845;-72
2022/07/20 05:37:37;;;;;;;9.83;7.10;;;23.40;72.00;;;;;;5094159;28;20438;-73
2022/07/20 05:40:05;;;;;;;9.33;7.30;;;23.50;71.80;;;;;;5093216;28;20566;-73
2022/07/20 05:42:32;;;;;;;13.77;7.07;;;23.50;71.10;;;;;;5093336;28;20587;-73
2022/07/20 05:44:59;;;;;;;9.77;6.90;;;23.60;72.40;;;;;;5093475;28;20993;-73
2022/07/20 05:47:27;;;;;;;9.13;7.33;;;23.60;73.50;;;;;;5093818;28;20543;-73
2022/07/20 05:49:54;;;;;;;8.43;7.23;;;23.70;71.50;;;;;;5093436;28;20493;-73
2022/07/20 05:52:22;;;;;;;7.90;6.50;;;23.70;69.40;;;;;;5093793;28;20483;-74
2022/07/20 05:54:50;;;;;;;9.70;7.13;;;23.80;71.20;;;;;;5093909;28;20440;-74
2022/07/20 05:57:17;;;;;;;6.70;6.00;;;23.90;68.40;;;;;;5093472;28;20478;-74
2022/07/20 05:59:44;;;;;;;10.03;7.60;;;24.00;68.00;;;;;;5093734;28;20475;-74
2022/07/20 06:02:12;;;;;;;7.60;6.20;;;24.10;70.10;;;;;;5093714;28;20479;-73
2022/07/20 06:04:39;;;;;;;10.93;6.80;;;24.10;70.90;;;;;;5093180;28;20470;-73
2022/07/20 06:07:06;;;;;;;8.10;6.27;;;24.20;68.10;;;;;;5094081;28;20559;-73
2022/07/20 06:09:35;;;;;;;10.37;7.13;;;24.30;68.80;;;;;;5093283;28;20486;-73
2022/07/20 06:12:02;;;;;;;16.47;7.60;;;24.30;67.20;;;;;;5093259;28;20483;-74
2022/07/20 06:14:30;;;;;;;8.97;6.70;;;24.40;66.40;;;;;;5093051;28;20951;-75
2022/07/20 06:16:57;;;;;;;9.57;6.70;;;24.50;66.40;;;;;;5093662;28;20973;-74
2022/07/20 06:19:24;;;;;;;11.70;6.60;;;24.50;65.40;;;;;;5093266;28;20542;-74
2022/07/20 06:21:51;;;;;;;10.23;7.03;;;24.60;67.10;;;;;;5093379;28;20467;-74
2022/07/20 06:24:19;;;;;;;7.90;6.60;;;24.70;65.40;;;;;;5093035;28;20486;-74
2022/07/20 06:26:48;;;;;;;8.00;6.80;;;24.80;65.70;;;;;;5093344;28;20487;-74
2022/07/20 06:29:15;;;;;;;8.60;7.73;;;24.90;63.30;;;;;;5093219;28;20470;-74
2022/07/20 06:31:43;;;;;;;9.00;7.50;;;25.00;63.20;;;;;;5093067;28;20496;-74
2022/07/20 06:34:10;;;;;;;9.37;7.00;;;25.10;63.90;;;;;;5092955;28;20443;-74
2022/07/20 06:36:37;;;;;;;7.37;6.77;;;25.10;62.10;;;;;;5092822;28;20451;-74
2022/07/20 06:39:04;;;;;;;8.80;6.57;;;25.20;60.00;;;;;;5093145;28;20538;-74
2022/07/20 06:41:32;;;;;;;13.73;7.07;;;25.30;60.20;;;;;;5093098;28;20542;-75
2022/07/20 06:44:00;;;;;;;8.27;6.33;;;25.40;60.60;;;;;;5092519;28;21003;-75
2022/07/20 06:46:27;;;;;;;10.73;7.33;;;25.50;61.50;;;;;;5092511;28;21008;-74
2022/07/20 06:48:55;;;;;;;8.20;6.80;;;25.60;60.70;;;;;;5092950;28;20538;-75
2022/07/20 06:51:24;;;;;;;8.50;6.80;;;25.70;61.80;;;;;;5092749;28;21000;-75
2022/07/20 06:53:51;;;;;;;7.23;5.60;;;25.80;59.90;;;;;;5093292;28;20516;-74
2022/07/20 06:56:18;;;;;;;11.10;6.53;;;25.90;60.10;;;;;;5092557;28;20471;-74
2022/07/20 06:58:46;;;;;;;9.83;7.23;;;26.10;59.70;;;;;;5092283;28;20527;-74
2022/07/20 07:01:14;;;;;;;10.30;7.23;;;26.20;60.80;;;;;;5092706;28;20524;-73
2022/07/20 07:03:41;;;;;;;12.63;7.97;;;26.20;60.30;;;;;;5092490;28;20475;-74
2022/07/20 07:06:09;;;;;;;13.33;7.33;;;26.20;60.50;;;;;;5093142;28;20552;-73
2022/07/20 07:08:36;;;;;;;12.33;7.80;;;26.20;60.70;;;;;;5092904;28;20521;-75
2022/07/20 07:11:03;;;;;;;12.77;7.20;;;26.30;61.50;;;;;;5092626;28;20599;-73
2022/07/20 07:13:32;;;;;;;13.37;7.57;;;26.40;59.60;;;;;;5092856;28;20497;-75
2022/07/20 07:15:59;;;;;;;7.60;6.80;;;26.50;59.60;;;;;;5092850;28;20443;-74
2022/07/20 07:18:28;;;;;;;10.23;7.60;;;26.60;59.50;;;;;;5092448;28;20451;-74
2022/07/20 07:20:55;;;;;;;11.20;6.70;;;26.70;60.20;;;;;;5092528;28;20493;-73
2022/07/20 07:23:22;;;;;;;9.60;7.17;;;26.80;59.40;;;;;;5092721;28;20478;-73
2022/07/20 07:25:49;;;;;;;10.20;7.40;;;27.00;58.90;;;;;;5092279;28;20474;-74
2022/07/20 07:28:17;;;;;;;15.87;8.87;;;27.50;59.20;;;;;;5092710;28;20447;-73
2022/07/20 07:30:44;;;;;;;14.07;8.13;;;28.30;57.60;;;;;;5092335;28;20528;-73
2022/07/20 07:33:12;;;;;;;9.87;7.53;;;29.10;56.90;;;;;;5092208;28;20885;-73
2022/07/20 07:35:40;;;;;;;12.13;7.43;;;29.60;56.60;;;;;;5092092;28;20871;-74
2022/07/20 07:38:07;;;;;;;8.40;7.53;;;30.10;55.40;;;;;;5092782;28;20515;-74
2022/07/20 07:40:35;;;;;;;13.80;7.97;;;30.40;55.00;;;;;;5092202;28;20471;-74
2022/07/20 07:43:02;;;;;;;8.30;6.90;;;30.80;54.60;;;;;;5092026;28;20514;-73
2022/07/20 07:45:29;;;;;;;10.77;7.70;;;31.30;53.70;;;;;;5092260;28;20490;-73
2022/07/20 07:47:56;;;;;;;9.50;7.87;;;31.20;53.50;;;;;;5092490;28;20479;-73
2022/07/20 07:50:24;;;;;;;11.60;7.40;;;31.50;53.20;;;;;;5095844;28;20559;-73
2022/07/20 07:52:52;;;;;;;9.23;7.40;;;31.80;52.60;;;;;;5095817;28;20917;-73
2022/07/20 07:55:20;;;;;;;13.37;7.67;;;32.50;51.50;;;;;;5097220;28;20474;-73
2022/07/20 07:57:47;;;;;;;8.13;7.33;;;32.70;51.70;;;;;;5095628;28;20453;-73
2022/07/20 08:00:15;;;;;;;9.07;7.50;;;33.20;50.70;;;;;;5096076;28;20469;-73
2022/07/20 08:02:42;;;;;;;9.80;7.10;;;33.50;50.80;;;;;;5095652;28;20862;-73
2022/07/20 08:05:09;;;;;;;9.20;7.80;;;34.00;50.30;;;;;;5095287;28;20974;-72
2022/07/20 08:07:39;;;;;;;12.47;7.20;;;34.10;49.40;;;;;;5095984;28;20424;-73
2022/07/20 08:10:09;;;;;;;9.57;8.13;;;34.10;48.30;;;;;;5095700;28;20973;-74
2022/07/20 08:12:37;;;;;;;7.77;7.00;;;34.70;49.50;;;;;;5095849;28;20526;-74
2022/07/20 08:15:05;;;;;;;7.80;7.00;;;34.90;48.80;;;;;;5095989;28;20529;-73
2022/07/20 08:17:32;;;;;;;7.13;6.43;;;35.20;48.00;;;;;;5095319;28;20451;-71
2022/07/20 08:20:00;;;;;;;8.90;7.50;;;34.80;46.60;;;;;;5095598;28;20542;-72
2022/07/20 08:22:27;;;;;;;10.60;7.67;;;35.50;48.20;;;;;;5095272;28;20783;-72
2022/07/20 08:24:54;;;;;;;12.80;8.67;;;35.90;47.40;;;;;;5095350;28;20507;-72
2022/07/20 08:27:23;;;;;;;8.37;7.57;;;36.20;48.20;;;;;;5094923;28;20478;-72
2022/07/20 08:29:58;;;;;;;9.27;7.40;;;35.90;47.00;;;;;;5095255;28;20499;-72
2022/07/20 08:32:25;;;;;;;7.73;7.13;;;36.50;47.60;;;;;;5095137;28;20491;-71
2022/07/20 08:34:52;;;;;;;9.43;6.97;;;36.80;49.80;;;;;;5095060;28;20531;-72
2022/07/20 08:37:19;;;;;;;7.57;6.87;;;37.00;47.00;;;;;;5095494;28;20539;-72
2022/07/20 08:39:47;;;;;;;8.53;7.00;;;36.80;47.60;;;;;;5094788;28;20985;-72
2022/07/20 08:42:17;;;;;;;8.90;8.07;;;37.50;45.50;;;;;;5094443;28;20489;-71
2022/07/20 08:44:50;;;;;;;8.23;7.53;;;37.50;45.80;;;;;;5094602;28;20451;-72
2022/07/20 08:47:18;;;;;;;9.00;7.47;;;37.70;45.50;;;;;;5094512;28;20482;-71
2022/07/20 08:49:48;;;;;;;7.57;6.83;;;37.50;45.90;;;;;;5094816;28;20505;-72
2022/07/20 08:52:16;;;;;;;13.50;8.27;;;37.50;46.10;;;;;;5094636;28;20486;-72
2022/07/20 08:54:43;;;;;;;10.13;7.27;;;37.80;45.20;;;;;;5094698;28;20530;-73
2022/07/20 08:57:12;;;;;;;7.67;6.87;;;38.20;45.00;;;;;;5095137;28;20462;-73
2022/07/20 08:59:39;;;;;;;13.80;6.57;;;38.00;45.00;;;;;;5094683;28;20501;-73
2022/07/20 09:02:09;;;;;;;10.33;7.17;;;38.40;44.60;;;;;;5094470;28;20984;-70
2022/07/20 09:04:51;;;;;;;8.30;6.90;;;38.30;44.70;;;;;;5094149;28;20458;-71
2022/07/20 09:07:18;;;;;;;14.10;7.70;;;38.40;44.70;;;;;;5094871;28;20482;-72
2022/07/20 09:09:45;;;;;;;8.27;6.50;;;38.40;44.20;;;;;;5094744;28;20344;-71
2022/07/20 09:12:13;;;;;;;7.90;7.10;;;38.90;44.40;;;;;;5094195;28;20447;-73
2022/07/20 09:14:47;;;;;;;9.63;6.53;;;39.00;44.70;;;;;;5094075;28;20260;-71
2022/07/20 09:17:17;;;;;;;7.80;6.40;;;38.90;44.30;;;;;;5094275;28;20185;-70
2022/07/20 09:19:55;;;;;;;11.80;7.50;;;38.90;43.60;;;;;;5094561;28;20488;-70
2022/07/20 09:22:33;;;;;;;9.57;5.60;;;38.90;44.00;;;;;;5094084;28;20234;-71
2022/07/20 09:25:13;;;;;;;8.80;5.73;;;39.20;41.10;;;;;;5094240;28;20283;-71
2022/07/20 09:27:40;;;;;;;9.33;7.30;;;39.20;42.30;;;;;;5093934;28;20292;-71
2022/07/20 09:30:10;;;;;;;6.00;5.40;;;38.90;43.80;;;;;;5093817;28;20252;-71
2022/07/20 09:32:53;;;;;;;6.47;5.87;;;39.10;40.70;;;;;;5093705;28;20435;-71
2022/07/20 09:35:22;;;;;;;7.00;5.47;;;39.80;41.20;;;;;;5094020;28;20208;-71
2022/07/20 09:37:50;;;;;;;6.30;4.90;;;40.10;40.10;;;;;;5094126;28;20229;-71
2022/07/20 09:40:17;;;;;;;6.50;5.43;;;40.00;39.60;;;;;;5094117;28;20549;-72
2022/07/20 09:42:46;;;;;;;6.70;4.93;;;40.00;39.90;;;;;;5093841;28;20236;-72
2022/07/20 09:45:30;;;;;;;6.83;6.13;;;40.10;40.90;;;;;;5093997;28;20226;-71
2022/07/20 09:48:08;;;;;;;10.83;6.00;;;40.10;40.40;;;;;;5093546;28;20224;-72
2022/07/20 09:50:37;;;;;;;8.32;5.80;;;40.20;40.70;;;;;;5093942;28;20224;-73
2022/07/20 09:53:06;;;;;;;7.30;5.97;;;40.00;40.10;;;;;;5093790;28;20197;-72
2022/07/20 09:55:34;;;;;;;8.40;5.90;;;39.50;40.10;;;;;;5093816;28;20209;-73
2022/07/20 09:58:02;;;;;;;6.90;6.10;;;39.20;40.60;;;;;;5093453;28;20292;-72
2022/07/20 10:00:30;;;;;;;10.83;5.90;;;39.80;40.50;;;;;;5093463;28;20671;-73
2022/07/20 10:02:59;;;;;;;10.02;6.10;;;40.30;40.00;;;;;;5093332;28;20233;-71
2022/07/20 10:05:34;;;;;;;7.17;6.43;;;40.40;39.90;;;;;;5093390;28;20294;-72
2022/07/20 10:08:03;;;;;;;6.67;5.70;;;40.20;39.50;;;;;;5093303;28;20239;-71
2022/07/20 10:10:31;;;;;;;6.77;5.60;;;40.20;40.00;;;;;;5093478;28;20307;-72
2022/07/20 10:12:59;;;;;;;6.13;5.53;;;40.50;40.10;;;;;;5092901;28;20247;-71
2022/07/20 10:15:33;;;;;;;12.30;6.10;;;40.50;40.10;;;;;;5093211;28;20207;-70
2022/07/20 10:18:01;;;;;;;6.80;6.15;;;40.60;39.60;;;;;;5093444;28;20196;-70
2022/07/20 10:20:36;;;;;;;8.05;5.60;;;40.00;39.70;;;;;;5093162;28;20266;-70
2022/07/20 10:23:28;;;;;;;10.65;6.55;;;40.40;39.70;;;;;;5093288;28;20593;-70
2022/07/20 10:25:57;;;;;;;9.52;6.10;;;40.70;39.30;;;;;;5093075;28;20193;-70
2022/07/20 10:28:42;;;;;;;6.10;5.50;;;40.80;40.20;;;;;;5093267;28;20204;-70
2022/07/20 10:31:16;;;;;;;15.17;6.17;;;40.90;40.10;;;;;;5093188;28;20582;-70
2022/07/20 10:33:44;;;;;;;8.32;6.47;;;40.70;39.60;;;;;;5092876;28;20217;-70
2022/07/20 10:39:29;;;;;;;8.20;6.10;;;40.40;40.10;;;;;;5093011;28;20648;-70
2022/07/20 10:42:31;;;;;;;6.35;5.18;;;40.40;40.20;;;;;;5092440;28;20201;-70
2022/07/20 10:45:32;;;;;;;6.30;5.30;;;40.80;40.30;;;;;;4991173;28;20291;-70
2022/07/20 10:48:04;;;;;;;7.67;5.80;;;40.70;40.50;;;;;;4991375;28;20793;-70
2022/07/20 10:50:33;;;;;;;6.80;6.22;;;40.90;39.60;;;;;;5064904;28;20227;-71
2022/07/20 10:53:37;;;;;;;8.27;5.87;;;40.70;39.90;;;;;;5092818;28;20236;-71
2022/07/20 10:56:06;;;;;;;5.68;5.18;;;40.60;39.70;;;;;;5092821;28;20589;-71
2022/07/20 10:58:35;;;;;;;8.35;5.82;;;40.80;40.80;;;;;;5092507;28;20515;-71
2022/07/20 11:01:05;;;;;;;13.00;6.22;;;40.50;40.00;;;;;;5092900;28;20220;-71
2022/07/20 11:03:36;;;;;;;7.10;5.80;;;;;;;;;;5092992;28;20287;-71
2022/07/20 11:06:07;;;;;;;6.57;5.88;;;41.10;39.00;;;;;;5092990;28;20583;-71
2022/07/20 11:08:35;;;;;;;6.90;6.30;;;40.50;39.90;;;;;;5092954;28;20273;-70
2022/07/20 11:11:03;;;;;;;12.35;6.18;;;40.90;39.30;;;;;;5092984;28;20220;-71
2022/07/20 11:13:31;;;;;;;7.63;6.93;;;40.80;40.10;;;;;;5092455;28;20201;-71
2022/07/20 11:15:59;;;;;;;6.93;5.60;;;41.20;40.50;;;;;;5092412;28;20219;-72
2022/07/20 11:18:30;;;;;;;10.23;6.18;;;41.60;40.30;;;;;;5092601;28;20197;-70
2022/07/20 11:20:59;;;;;;;7.50;5.05;;;41.50;39.70;;;;;;5092471;28;20777;-71
2022/07/20 11:23:39;;;;;;;9.02;6.65;;;41.10;40.20;;;;;;5093526;28;20220;-71
2022/07/20 11:26:08;;;;;;;7.28;6.25;;;41.70;39.70;;;;;;5096384;28;20711;-70
2022/07/20 11:28:37;;;;;;;8.77;6.20;;;41.40;39.40;;;;;;5096162;28;20197;-71
2022/07/20 11:31:07;;;;;;;6.53;5.93;;;40.90;39.40;;;;;;5096330;28;20221;-70
2022/07/20 11:33:36;;;;;;;6.73;6.20;;;41.10;40.00;;;;;;5096140;28;20205;-71
2022/07/20 11:36:06;;;;;;;8.02;6.57;;;41.10;39.30;;;;;;5096320;28;20395;-70
2022/07/20 11:38:38;;;;;;;9.68;5.50;;;41.20;39.90;;;;;;5096266;28;20201;-70
2022/07/20 11:41:09;;;;;;;7.47;6.80;;;41.10;39.80;;;;;;5096013;28;20220;-70
2022/07/20 11:43:36;;;;;;;9.48;6.38;;;40.80;41.00;;;;;;5095792;28;20279;-70
2022/07/20 11:46:11;;;;;;;8.90;6.93;;;40.60;40.40;;;;;;5095977;28;20231;-71
2022/07/20 11:48:39;;;;;;;9.13;6.50;;;40.40;40.20;;;;;;5096267;28;20686;-71
2022/07/20 11:51:07;;;;;;;7.43;6.77;;;40.40;40.60;;;;;;5096207;28;20307;-72
2022/07/20 11:53:36;;;;;;;7.33;6.40;;;40.50;40.60;;;;;;5096208;28;20231;-70
2022/07/20 11:56:06;;;;;;;7.03;6.33;;;40.30;40.60;;;;;;5095990;28;20446;-70
2022/07/20 11:58:36;;;;;;;14.77;7.27;;;40.20;41.10;;;;;;5095894;28;20300;-70
2022/07/20 12:01:06;;;;;;;8.37;7.57;;;40.70;41.10;;;;;;5095675;28;20226;-70
2022/07/20 12:03:35;;;;;;;11.93;7.20;;;40.80;41.00;;;;;;5095648;28;20679;-70
2022/07/20 12:06:05;;;;;;;7.13;6.50;;;40.30;40.60;;;;;;5095832;28;20929;-70
2022/07/20 12:08:33;;;;;;;7.60;6.90;;;40.60;40.60;;;;;;5095566;28;20217;-70
2022/07/20 12:11:00;;;;;;;7.53;6.80;;;41.10;41.00;;;;;;5095552;28;20566;-71
2022/07/20 12:13:29;;;;;;;6.57;5.93;;;41.30;41.00;;;;;;5095800;28;20212;-72
2022/07/20 12:16:02;;;;;;;6.87;6.30;;;41.30;40.60;;;;;;5095756;28;20287;-71
2022/07/20 12:18:37;;;;;;;6.77;6.27;;;41.20;40.20;;;;;;5095405;28;20226;-71
2022/07/20 12:21:06;;;;;;;8.37;6.90;;;41.20;40.90;;;;;;5095430;28;20259;-71
2022/07/20 12:23:34;;;;;;;11.20;8.10;;;40.90;40.60;;;;;;5095332;28;20292;-71
2022/07/20 12:26:02;;;;;;;8.00;7.20;;;40.60;41.60;;;;;;5095593;28;20283;-72
2022/07/20 12:28:31;;;;;;;9.43;7.97;;;40.70;41.20;;;;;;5094994;28;20333;-73
2022/07/20 12:31:14;;;;;;;12.60;7.87;;;40.20;41.40;;;;;;5095066;28;20228;-72
2022/07/20 12:33:57;;;;;;;8.50;7.70;;;;;;;;;;5095268;28;20221;-72
2022/07/20 12:36:33;;;;;;;10.00;9.20;;;39.30;41.60;;;;;;5095259;28;20513;-73
2022/07/20 12:39:01;;;;;;;9.30;8.37;;;38.30;42.10;;;;;;5095059;28;20441;-72
2022/07/20 12:41:28;;;;;;;14.23;9.73;;;37.50;42.80;;;;;;5095106;28;20493;-73
2022/07/20 12:43:56;;;;;;;10.77;9.67;;;37.00;43.90;;;;;;5094820;28;20548;-72
2022/07/20 12:46:25;;;;;;;11.30;9.83;;;36.90;44.70;;;;;;5094988;28;20518;-73
2022/07/20 12:48:53;;;;;;;12.67;11.40;;;36.80;44.90;;;;;;5095158;28;20533;-72
2022/07/20 12:51:20;;;;;;;14.17;11.27;;;37.10;44.90;;;;;;5094554;28;20463;-73
2022/07/20 12:53:52;;;;;;;14.47;12.77;;;37.00;45.30;;;;;;5094854;28;20522;-71
2022/07/20 12:56:19;;;;;;;18.40;13.17;;;36.60;45.40;;;;;;5094898;28;20431;-72
2022/07/20 12:58:46;;;;;;;16.27;13.23;;;36.40;45.50;;;;;;5094487;28;20439;-72
2022/07/20 13:01:14;;;;;;;16.33;12.13;;;35.90;45.80;;;;;;5094579;28;20467;-72
2022/07/20 13:03:42;;;;;;;14.13;12.83;;;35.90;45.90;;;;;;5094887;28;20450;-72